Humidity-temperature Sensor

Selected Measurement Type: Relative Humidity

 
Relative Humidity [%]     6 entries per hour
Showing data from 9/16/2014 (00:00:00 Z) to 9/9/2014 (00:01:00 Z)
Previous Next [ Day | 3-Days | 7-Days ]
First Last
Prev [ Day | 3-Days | 7-Days ] Next
First Last

Start Time:     :
End Time:     :     
Time (in GMT) :00 :50 :40 :30 :20 :10
Previous Next [ Day | 3-Days | 7-Days ]
First Last
Prev [ Day | 3-Days | 7-Days ] Next
First Last


123 => good data
MM => data is determined as missing
-- => data not received/configured
Back to Top Back to Top
9/16/2014 00:00 to 23:10 76.30 76.60 76.51 76.56 76.28 76.07
9/15/2014 23:00 to 22:10 76.56 77.49 77.13 76.94 77.57 77.26
9/15/2014 22:00 to 21:10 76.96 76.45 75.43 74.73 74.86 75.22
9/15/2014 21:00 to 20:10 75.60 75.37 75.92 75.77 74.99 74.25
9/15/2014 20:00 to 19:10 75.37 75.77 76.09 75.54 75.54 75.05
9/15/2014 19:00 to 18:10 75.16 73.97 73.50 73.67 74.75 74.82
9/15/2014 18:00 to 17:10 74.65 74.88 74.16 74.14 74.12 74.35
9/15/2014 17:00 to 16:10 74.50 73.97 74.42 73.97 74.63 74.71
9/15/2014 16:00 to 15:10 74.33 73.23 73.14 72.61 73.21 74.50
9/15/2014 15:00 to 14:10 75.92 75.64 76.22 75.60 76.05 75.94
9/15/2014 14:00 to 13:10 76.68 76.81 76.81 76.94 76.39 75.67
9/15/2014 13:00 to 12:10 76.09 76.07 76.34 76.56 77.21 77.30
9/15/2014 12:00 to 11:10 77.38 77.43 77.04 77.64 77.09 76.45
9/15/2014 11:00 to 10:10 76.03 76.49 76.56 76.53 77.13 76.68
9/15/2014 10:00 to 9:10 -- -- -- -- -- --
9/15/2014 09:00 to 8:10 77.98 77.43 76.83 76.85 76.03 75.62
9/15/2014 08:00 to 7:10 75.77 77.38 77.62 77.06 77.00 77.13
9/15/2014 07:00 to 6:10 77.70 78.06 77.51 77.17 77.11 77.68
9/15/2014 06:00 to 5:10 77.59 77.02 77.47 77.45 77.13 77.49
9/15/2014 05:00 to 4:10 77.19 77.11 76.62 76.83 77.06 77.36
9/15/2014 04:00 to 3:10 77.34 76.94 77.02 76.34 77.49 77.38
9/15/2014 03:00 to 2:10 77.28 77.70 77.21 76.90 76.94 76.28
9/15/2014 02:00 to 1:10 75.24 75.60 76.49 75.73 76.28 76.70
9/15/2014 01:00 to 0:10 77.38 76.79 77.93 76.96 75.45 74.97
9/15/2014 00:00 to 23:10 75.62 75.73 75.71 76.09 76.85 76.17
9/14/2014 23:00 to 22:10 75.69 75.43 76.24 76.20 75.50 76.49
9/14/2014 22:00 to 21:10 76.77 76.87 76.77 76.79 77.30 76.22
9/14/2014 21:00 to 20:10 76.90 76.87 76.53 76.05 76.09 76.13
9/14/2014 20:00 to 19:10 75.98 75.60 75.75 77.45 77.34 76.64
9/14/2014 19:00 to 18:10 76.87 77.04 77.06 76.77 76.85 77.38
9/14/2014 18:00 to 17:10 77.11 76.56 76.41 75.86 74.82 74.92
9/14/2014 17:00 to 16:10 74.03 73.57 74.67 73.27 73.91 73.48
9/14/2014 16:00 to 15:10 73.36 73.25 73.25 74.22 74.61 74.86
9/14/2014 15:00 to 14:10 75.01 74.61 75.07 76.00 75.81 75.71
9/14/2014 14:00 to 13:10 75.77 76.28 75.88 75.54 74.88 75.20
9/14/2014 13:00 to 12:10 74.63 75.31 75.67 76.07 75.96 75.98
9/14/2014 12:00 to 11:10 75.86 75.94 75.75 74.92 75.64 75.50
9/14/2014 11:00 to 10:10 75.77 75.69 75.98 75.96 76.77 76.75
9/14/2014 10:00 to 9:10 76.24 75.96 75.56 75.26 75.54 75.90
9/14/2014 09:00 to 8:10 76.07 75.71 75.11 75.98 76.20 77.30
9/14/2014 08:00 to 7:10 77.04 76.45 75.75 75.88 76.22 75.48
9/14/2014 07:00 to 6:10 74.92 75.01 74.82 74.20 73.59 74.18
9/14/2014 06:00 to 5:10 73.97 73.78 73.38 74.08 73.27 73.72
9/14/2014 05:00 to 4:10 73.16 73.84 74.48 74.18 73.93 74.18
9/14/2014 04:00 to 3:10 74.71 74.80 74.29 74.33 74.95 75.20
9/14/2014 03:00 to 2:10 74.95 75.56 75.28 74.52 74.14 74.90
9/14/2014 02:00 to 1:10 76.41 76.53 76.20 76.32 76.32 75.07
9/14/2014 01:00 to 0:10 74.63 74.80 73.99 73.69 73.36 72.66
9/14/2014 00:00 to 23:10 73.02 73.84 73.91 73.91 73.69 73.78
9/13/2014 23:00 to 22:10 74.71 74.14 74.10 73.63 73.12 73.44
9/13/2014 22:00 to 21:10 74.22 74.42 74.27 73.76 73.38 72.76
9/13/2014 21:00 to 20:10 72.61 72.27 72.25 71.81 72.66 73.38
9/13/2014 20:00 to 19:10 72.99 73.29 72.97 73.46 73.29 73.89
9/13/2014 19:00 to 18:10 74.67 74.03 73.48 73.40 74.31 73.06
9/13/2014 18:00 to 17:10 73.44 73.02 73.42 72.36 73.02 73.40
9/13/2014 17:00 to 16:10 73.99 73.69 74.01 74.39 74.05 73.42
9/13/2014 16:00 to 15:10 73.38 73.38 74.03 73.99 74.39 74.63
9/13/2014 15:00 to 14:10 74.37 75.26 76.15 75.69 76.37 77.26
9/13/2014 14:00 to 13:10 76.26 76.34 76.22 76.58 77.06 77.47
9/13/2014 13:00 to 12:10 77.51 77.57 77.51 77.59 78.91 78.55
9/13/2014 12:00 to 11:10 78.10 78.61 78.93 79.16 78.70 78.59
9/13/2014 11:00 to 10:10 78.48 78.48 78.48 79.08 79.27 80.18
9/13/2014 10:00 to 9:10 79.78 79.21 78.29 78.27 78.15 77.83
9/13/2014 09:00 to 8:10 78.23 77.72 78.19 78.42 77.96 77.87
9/13/2014 08:00 to 7:10 77.68 77.49 77.26 77.23 77.32 76.75
9/13/2014 07:00 to 6:10 76.15 76.28 76.03 77.00 77.43 77.91
9/13/2014 06:00 to 5:10 77.23 77.49 77.19 77.00 76.32 75.69
9/13/2014 05:00 to 4:10 75.54 75.14 75.26 75.79 75.39 75.35
9/13/2014 04:00 to 3:10 76.53 76.87 76.75 75.88 76.51 76.20
9/13/2014 03:00 to 2:10 77.36 77.83 77.91 78.44 78.65 78.93
9/13/2014 02:00 to 1:10 78.38 77.62 76.75 76.05 76.53 75.62
9/13/2014 01:00 to 0:10 75.54 75.43 75.43 75.39 75.45 75.09
9/13/2014 00:00 to 23:10 75.60 75.62 75.69 75.62 74.95 74.29
9/12/2014 23:00 to 22:10 74.08 72.63 72.49 72.34 71.68 72.44
9/12/2014 22:00 to 21:10 73.31 74.01 73.74 74.52 75.37 74.69
9/12/2014 21:00 to 20:10 74.18 74.90 75.69 76.73 77.36 76.79
9/12/2014 20:00 to 19:10 76.37 75.96 76.05 75.88 75.94 75.28
9/12/2014 19:00 to 18:10 75.54 75.18 75.50 75.77 76.05 76.00
9/12/2014 18:00 to 17:10 74.52 75.33 74.99 75.37 76.47 77.09
9/12/2014 17:00 to 16:10 76.17 75.67 74.31 74.48 74.90 75.24
9/12/2014 16:00 to 15:10 75.31 75.20 75.37 75.33 75.37 73.82
9/12/2014 15:00 to 14:10 73.21 72.68 72.70 73.21 72.99 72.74
9/12/2014 14:00 to 13:10 72.38 73.40 73.97 74.71 74.25 75.73
9/12/2014 13:00 to 12:10 76.45 76.05 75.88 76.53 76.34 76.43
9/12/2014 12:00 to 11:10 76.43 76.79 77.72 77.15 76.58 76.07
9/12/2014 11:00 to 10:10 76.28 77.36 76.83 76.34 76.20 76.09
9/12/2014 10:00 to 9:10 -- -- -- -- -- --
9/12/2014 09:00 to 8:10 76.45 75.84 75.07 74.92 75.09 75.35
9/12/2014 08:00 to 7:10 75.45 75.71 75.43 75.67 74.71 75.37
9/12/2014 07:00 to 6:10 75.28 75.43 75.31 76.22 76.07 76.09
9/12/2014 06:00 to 5:10 76.17 75.39 75.07 74.46 74.05 73.65
9/12/2014 05:00 to 4:10 74.35 74.78 75.35 73.74 74.84 75.18
9/12/2014 04:00 to 3:10 74.84 75.24 75.22 74.67 74.75 74.33
9/12/2014 03:00 to 2:10 74.82 74.22 75.03 74.63 74.50 73.40
9/12/2014 02:00 to 1:10 73.95 73.16 72.57 72.17 72.49 73.46
9/12/2014 01:00 to 0:10 72.32 72.51 72.00 73.61 73.95 72.30
9/12/2014 00:00 to 23:10 72.36 72.99 72.47 72.17 71.15 69.31
9/11/2014 23:00 to 22:10 68.23 69.86 69.86 70.05 69.92 69.46
9/11/2014 22:00 to 21:10 68.73 66.98 68.59 68.44 69.31 67.02
9/11/2014 21:00 to 20:10 66.19 66.32 65.94 67.74 67.53 68.52
9/11/2014 20:00 to 19:10 66.98 65.13 66.13 68.93 68.71 67.61
9/11/2014 19:00 to 18:10 68.46 69.86 70.43 73.19 72.53 72.97
9/11/2014 18:00 to 17:10 71.72 72.13 73.38 72.83 73.50 72.74
9/11/2014 17:00 to 16:10 73.16 74.56 75.01 74.18 73.29 73.55
9/11/2014 16:00 to 15:10 74.44 74.82 74.80 74.63 75.14 76.07
9/11/2014 15:00 to 14:10 77.59 76.96 77.06 76.70 76.81 78.00
9/11/2014 14:00 to 13:10 77.62 78.42 78.27 77.70 77.64 78.27
9/11/2014 13:00 to 12:10 79.33 78.65 78.15 77.93 77.30 77.26
9/11/2014 12:00 to 11:10 76.11 74.71 74.78 74.39 73.46 72.68
9/11/2014 11:00 to 10:10 74.86 74.29 76.05 77.06 76.94 76.85
9/11/2014 10:00 to 9:10 75.69 75.56 75.71 75.71 77.32 76.37
9/11/2014 09:00 to 8:10 75.41 76.22 75.79 75.69 76.34 74.97
9/11/2014 08:00 to 7:10 74.33 75.11 76.43 75.01 75.37 74.65
9/11/2014 07:00 to 6:10 74.39 74.42 74.67 75.52 74.54 75.69
9/11/2014 06:00 to 5:10 76.64 76.47 76.85 77.43 77.15 76.83
9/11/2014 05:00 to 4:10 76.41 76.30 76.09 75.88 75.26 74.90
9/11/2014 04:00 to 3:10 74.71 74.80 76.15 76.07 76.00 75.71
9/11/2014 03:00 to 2:10 75.48 74.71 75.37 76.60 75.64 76.20
9/11/2014 02:00 to 1:10 75.43 74.90 74.80 75.31 75.07 76.26
9/11/2014 01:00 to 0:10 75.92 75.48 76.34 74.69 74.75 73.74
9/11/2014 00:00 to 23:10 74.03 73.76 73.02 73.12 73.80 74.54
9/10/2014 23:00 to 22:10 73.93 74.01 75.54 74.10 73.59 73.33
9/10/2014 22:00 to 21:10 73.14 74.44 75.07 75.09 76.24 76.60
9/10/2014 21:00 to 20:10 76.13 76.09 75.48 75.03 74.73 76.13
9/10/2014 20:00 to 19:10 75.84 75.50 75.18 76.05 75.56 75.09
9/10/2014 19:00 to 18:10 75.37 76.77 76.73 75.90 75.33 75.79
9/10/2014 18:00 to 17:10 75.41 75.84 75.50 76.83 77.13 76.77
9/10/2014 17:00 to 16:10 77.28 77.55 76.64 76.26 75.94 75.67
9/10/2014 16:00 to 15:10 75.45 76.62 77.09 75.54 75.90 76.79
9/10/2014 15:00 to 14:10 78.99 79.35 79.14 79.10 78.74 76.73
9/10/2014 14:00 to 13:10 76.03 77.30 76.83 77.59 77.36 76.81
9/10/2014 13:00 to 12:10 75.86 74.78 75.96 75.86 76.00 76.68
9/10/2014 12:00 to 11:10 76.22 76.03 76.11 76.47 75.94 75.18
9/10/2014 11:00 to 10:10 75.18 75.28 75.20 76.17 77.93 77.85
9/10/2014 10:00 to 9:10 77.19 78.48 78.29 77.36 77.66 76.87
9/10/2014 09:00 to 8:10 77.23 77.09 77.53 77.26 77.15 77.51
9/10/2014 08:00 to 7:10 77.11 76.92 77.57 77.26 77.66 78.06
9/10/2014 07:00 to 6:10 78.15 77.51 77.47 76.87 76.73 75.96
9/10/2014 06:00 to 5:10 76.17 76.41 75.67 75.14 74.97 75.43
9/10/2014 05:00 to 4:10 75.86 76.03 75.07 75.58 76.28 76.90
9/10/2014 04:00 to 3:10 -- -- -- -- -- --
9/10/2014 03:00 to 2:10 75.90 75.84 76.56 76.66 77.36 76.66
9/10/2014 02:00 to 1:10 76.62 76.96 78.19 78.02 78.02 78.04
9/10/2014 01:00 to 0:10 78.15 78.68 79.29 78.89 78.93 79.06
9/10/2014 00:00 to 23:10 79.44 79.06 78.87 77.96 78.80 78.34
9/9/2014 23:00 to 22:10 78.08 78.06 77.91 78.25 78.55 77.43
9/9/2014 22:00 to 21:10 77.51 77.68 77.81 77.09 76.79 76.87
9/9/2014 21:00 to 20:10 76.43 76.98 76.53 77.09 76.94 76.79
9/9/2014 20:00 to 19:10 76.56 76.92 76.92 76.45 77.04 76.53
9/9/2014 19:00 to 18:10 75.88 76.77 76.62 75.96 75.20 75.64
9/9/2014 18:00 to 17:10 75.81 76.60 77.11 77.40 76.98 76.68
9/9/2014 17:00 to 16:10 76.39 77.02 76.09 76.28 76.51 76.68
9/9/2014 16:00 to 15:10 76.66 77.36 78.04 78.68 78.44 78.65
9/9/2014 15:00 to 14:10 78.65 79.08 78.57 78.00 77.91 77.83
9/9/2014 14:00 to 13:10 78.04 77.87 78.27 77.85 77.91 79.14
9/9/2014 13:00 to 12:10 79.06 79.59 79.52 79.42 78.46 79.16
9/9/2014 12:00 to 11:10 77.79 78.32 77.21 77.55 78.55 77.62
9/9/2014 11:00 to 10:10 78.87 80.24 80.58 80.35 79.95 79.54
9/9/2014 10:00 to 9:10 -- -- -- -- -- --
9/9/2014 09:00 to 8:10 80.10 80.03 79.78 79.42 79.21 78.68
9/9/2014 08:00 to 7:10 79.04 79.48 79.29 79.50 79.25 79.01
9/9/2014 07:00 to 6:10 79.40 79.61 80.44 79.21 78.78 78.27
9/9/2014 06:00 to 5:10 77.91 78.44 76.90 77.23 77.57 78.10
9/9/2014 05:00 to 4:10 78.12 78.78 78.78 78.99 78.99 79.76
9/9/2014 04:00 to 3:10 79.84 80.22 80.07 79.88 79.78 79.21
9/9/2014 03:00 to 2:10 78.53 77.79 78.15 78.08 78.61 78.70
9/9/2014 02:00 to 1:10 78.78 78.57 77.74 77.93 78.42 78.93
9/9/2014 01:00 to 0:10 78.91 79.01 79.04 78.95 78.40 77.87